createdAt,value
2023-04-04T00:01:31.689Z,1.43
2023-04-04T00:04:03.560Z,1.63
2023-04-04T00:06:34.899Z,1.43
2023-04-04T00:09:06.595Z,1.60
2023-04-04T00:11:38.174Z,1.50
2023-04-04T00:14:09.699Z,1.37
2023-04-04T00:16:41.021Z,1.17
2023-04-04T00:19:18.096Z,1.10
2023-04-04T00:21:50.282Z,1.63
2023-04-04T00:24:22.071Z,1.50
2023-04-04T00:26:53.749Z,1.23
2023-04-04T00:29:25.328Z,1.50
2023-04-04T00:31:57.765Z,1.27
2023-04-04T00:34:29.271Z,1.50
2023-04-04T00:37:00.588Z,1.37
2023-04-04T00:39:32.139Z,1.37
2023-04-04T00:42:04.528Z,1.10
2023-04-04T00:44:36.483Z,1.40
2023-04-04T00:47:08.250Z,1.10
2023-04-04T00:49:39.704Z,1.10
2023-04-04T00:52:10.996Z,1.40
2023-04-04T00:54:42.567Z,1.60
2023-04-04T00:57:14.254Z,1.20
2023-04-04T00:59:45.843Z,1.83
2023-04-04T01:02:17.163Z,1.70
2023-04-04T01:04:48.612Z,1.60
2023-04-04T01:07:20.012Z,1.40
2023-04-04T01:09:52.035Z,1.40
2023-04-04T01:12:23.775Z,1.40
2023-04-04T01:14:55.338Z,1.30
2023-04-04T01:17:27.885Z,1.20
2023-04-04T01:20:05.992Z,1.40
2023-04-04T01:22:38.834Z,1.17
2023-04-04T01:25:11.832Z,1.27
2023-04-04T01:27:43.215Z,1.50
2023-04-04T01:30:16.350Z,1.20
2023-04-04T01:33:06.515Z,1.20
2023-04-04T01:35:58.166Z,1.30
2023-04-04T01:38:55.727Z,1.13
2023-04-04T01:41:30.695Z,1.27
2023-04-04T01:44:03.769Z,1.23
2023-04-04T01:46:36.954Z,1.50
2023-04-04T01:49:09.664Z,1.20
2023-04-04T01:51:42.530Z,1.00
2023-04-04T01:54:13.934Z,0.97
2023-04-04T01:56:46.488Z,1.23
2023-04-04T01:59:17.952Z,1.47
2023-04-04T02:01:49.335Z,1.10
2023-04-04T02:04:21.148Z,1.17
2023-04-04T02:06:52.741Z,1.17
2023-04-04T02:09:24.180Z,1.03
2023-04-04T02:11:56.056Z,1.20
2023-04-04T02:14:27.628Z,1.23
2023-04-04T02:16:59.521Z,1.40
2023-04-04T02:19:30.956Z,1.30
2023-04-04T02:22:02.341Z,1.20
2023-04-04T02:24:33.702Z,1.40
2023-04-04T02:27:05.047Z,1.10
2023-04-04T02:29:36.334Z,1.23
2023-04-04T02:32:07.660Z,1.40
2023-04-04T02:34:39.013Z,1.00
2023-04-04T02:37:10.329Z,1.27
2023-04-04T02:39:41.666Z,1.27
2023-04-04T02:42:13.011Z,1.20
2023-04-04T02:44:44.343Z,1.40
2023-04-04T02:47:17.060Z,1.00
2023-04-04T02:49:48.389Z,1.77
2023-04-04T02:52:21.119Z,1.00
2023-04-04T02:54:52.854Z,1.73
2023-04-04T02:57:24.214Z,1.30
2023-04-04T02:59:55.579Z,1.40
2023-04-04T03:02:26.952Z,1.47
2023-04-04T03:04:58.290Z,1.20
2023-04-04T03:07:29.606Z,1.40
2023-04-04T03:10:01.444Z,1.10
2023-04-04T03:12:32.810Z,0.90
2023-04-04T03:15:05.437Z,1.93
2023-04-04T03:17:38.771Z,1.50
2023-04-04T03:20:12.497Z,1.30
2023-04-04T03:22:43.884Z,1.10
2023-04-04T03:25:16.107Z,1.50
2023-04-04T03:27:47.473Z,1.23
2023-04-04T03:30:18.910Z,1.43
2023-04-04T03:32:50.892Z,1.30
2023-04-04T03:35:22.350Z,1.50
2023-04-04T03:37:54.687Z,1.30
2023-04-04T03:40:26.100Z,1.30
2023-04-04T03:42:58.710Z,1.00
2023-04-04T03:45:34.427Z,1.20
2023-04-04T03:48:06.130Z,1.58
2023-04-04T03:50:37.574Z,1.60
2023-04-04T03:53:09.340Z,1.20
2023-04-04T03:55:42.255Z,1.30
2023-04-04T03:58:14.056Z,1.37
2023-04-04T04:00:45.603Z,1.40
2023-04-04T04:03:17.419Z,1.40
2023-04-04T04:05:49.057Z,1.33
2023-04-04T04:08:20.405Z,1.50
2023-04-04T04:10:52.272Z,1.83
2023-04-04T04:13:23.667Z,1.67
2023-04-04T04:15:56.284Z,1.50
2023-04-04T04:18:27.656Z,1.70
2023-04-04T04:21:00.041Z,1.57
2023-04-04T04:23:31.507Z,1.23
2023-04-04T04:26:02.875Z,1.60
2023-04-04T04:28:34.521Z,1.30
2023-04-04T04:31:10.557Z,1.27
2023-04-04T04:33:42.037Z,1.75
2023-04-04T04:36:13.644Z,1.27
2023-04-04T04:38:45.034Z,1.50
2023-04-04T04:41:16.901Z,1.40
2023-04-04T04:43:48.279Z,1.37
2023-04-04T04:46:19.623Z,1.47
2023-04-04T04:48:51.386Z,1.27
2023-04-04T04:51:23.826Z,1.50
2023-04-04T04:53:55.393Z,1.60
2023-04-04T04:56:26.742Z,1.53
2023-04-04T04:58:58.132Z,1.50
2023-04-04T05:01:29.736Z,1.10
2023-04-04T05:04:04.534Z,1.20
2023-04-04T05:06:36.353Z,1.47
2023-04-04T05:09:07.688Z,1.43
2023-04-04T05:11:39.241Z,1.70
2023-04-04T05:14:10.745Z,1.97
2023-04-04T05:16:43.442Z,1.70
2023-04-04T05:19:14.804Z,1.40
2023-04-04T05:21:46.738Z,2.07
2023-04-04T05:24:18.138Z,1.53
2023-04-04T05:26:50.578Z,1.77
2023-04-04T05:29:21.958Z,2.07
2023-04-04T05:31:53.345Z,1.67
2023-04-04T05:34:24.698Z,1.37
2023-04-04T05:36:56.350Z,1.60
2023-04-04T05:39:29.117Z,1.53
2023-04-04T05:42:00.576Z,1.53
2023-04-04T05:44:31.969Z,1.37
2023-04-04T05:47:03.621Z,1.80
2023-04-04T05:49:34.985Z,1.20
2023-04-04T05:52:06.441Z,1.40
2023-04-04T05:54:37.859Z,1.50
2023-04-04T05:57:09.288Z,1.40
2023-04-04T05:59:40.821Z,2.20
2023-04-04T06:02:12.482Z,1.30
2023-04-04T06:04:45.345Z,1.50
2023-04-04T06:07:16.851Z,1.30
2023-04-04T06:09:48.217Z,1.47
2023-04-04T06:12:19.811Z,1.43
2023-04-04T06:14:51.185Z,1.53
2023-04-04T06:17:23.637Z,1.90
2023-04-04T06:19:56.594Z,1.63
2023-04-04T06:22:28.336Z,1.53
2023-04-04T06:24:59.685Z,1.60
2023-04-04T06:27:31.004Z,1.80
2023-04-04T06:30:03.420Z,1.80
2023-04-04T06:32:35.034Z,1.53
2023-04-04T06:35:07.310Z,1.73
2023-04-04T06:37:38.640Z,2.37
2023-04-04T06:40:10.402Z,1.80
2023-04-04T06:42:52.449Z,1.73
2023-04-04T06:45:27.499Z,1.50
2023-04-04T06:47:59.308Z,1.77
2023-04-04T06:50:32.409Z,1.67
2023-04-04T06:53:04.190Z,1.67
2023-04-04T06:55:36.050Z,1.63
2023-04-04T06:58:07.411Z,2.23
2023-04-04T07:00:38.995Z,1.53
2023-04-04T07:03:10.967Z,1.80
2023-04-04T07:05:42.973Z,2.00
2023-04-04T07:08:14.326Z,1.50
2023-04-04T07:10:46.024Z,1.80
2023-04-04T07:13:17.591Z,1.83
2023-04-04T07:15:49.958Z,1.23
2023-04-04T07:18:21.281Z,1.43
2023-04-04T07:20:52.600Z,2.03
2023-04-04T07:23:24.964Z,1.70
2023-04-04T07:25:56.848Z,1.77
2023-04-04T07:28:29.168Z,0.90
2023-04-04T07:31:01.803Z,1.30
2023-04-04T07:33:33.172Z,0.90
2023-04-04T07:36:04.974Z,1.33
2023-04-04T07:38:37.566Z,1.40
2023-04-04T07:41:09.737Z,0.93
2023-04-04T07:43:41.253Z,1.10
2023-04-04T07:46:12.862Z,1.10
2023-04-04T07:48:44.229Z,1.00
2023-04-04T07:51:15.596Z,1.00
2023-04-04T07:53:47.860Z,1.30
2023-04-04T07:56:19.232Z,0.90
2023-04-04T07:58:50.670Z,1.40
2023-04-04T08:01:22.124Z,1.00
2023-04-04T08:03:54.437Z,0.90
2023-04-04T08:06:26.136Z,0.90
2023-04-04T08:08:57.467Z,1.07
2023-04-04T08:11:28.837Z,0.93
2023-04-04T08:14:00.158Z,1.13
2023-04-04T08:16:31.741Z,0.97
2023-04-04T08:19:04.079Z,1.47
2023-04-04T08:21:35.475Z,1.03
2023-04-04T08:24:07.968Z,0.80
2023-04-04T08:26:40.335Z,0.70
2023-04-04T08:29:11.760Z,0.90
2023-04-04T08:31:43.200Z,0.77
2023-04-04T08:34:15.571Z,0.70
2023-04-04T08:36:46.936Z,1.00
2023-04-04T08:39:18.322Z,1.07
2023-04-04T08:42:01.521Z,1.17
2023-04-04T08:44:34.774Z,1.23
2023-04-04T08:47:09.404Z,0.83
2023-04-04T08:49:44.025Z,0.90
2023-04-04T08:52:21.744Z,0.93
2023-04-04T08:54:53.849Z,0.90
2023-04-04T08:57:25.224Z,1.27
2023-04-04T08:59:56.910Z,0.90
2023-04-04T09:02:32.058Z,1.00
2023-04-04T09:05:06.695Z,1.43
2023-04-04T09:07:39.849Z,1.07
2023-04-04T09:10:11.972Z,0.93
2023-04-04T09:12:47.424Z,1.20
2023-04-04T09:15:19.087Z,0.85
2023-04-04T09:17:50.461Z,0.67
2023-04-04T09:20:44.923Z,1.10
2023-04-04T09:23:20.088Z,0.90
2023-04-04T09:28:29.583Z,0.83
2023-04-04T09:31:03.266Z,0.83
2023-04-04T09:33:34.803Z,0.80
2023-04-04T09:36:12.734Z,0.87
2023-04-04T09:38:45.348Z,1.10
2023-04-04T09:41:18.751Z,1.07
2023-04-04T09:43:52.441Z,0.80
2023-04-04T09:46:25.301Z,0.90
2023-04-04T09:48:58.422Z,0.90
2023-04-04T09:51:35.854Z,0.73
2023-04-04T09:54:18.650Z,0.87
2023-04-04T09:56:57.936Z,0.90
2023-04-04T09:59:29.340Z,0.90
2023-04-04T10:02:02.145Z,0.77
2023-04-04T10:04:35.451Z,1.03
2023-04-04T10:07:13.288Z,0.90
2023-04-04T10:09:50.797Z,0.67
2023-04-04T10:12:26.109Z,0.93
2023-04-04T10:14:59.061Z,0.80
2023-04-04T10:17:41.455Z,0.77
2023-04-04T10:20:13.641Z,1.60
2023-04-04T10:22:46.234Z,0.80
2023-04-04T10:25:17.862Z,0.87
2023-04-04T10:27:51.354Z,1.00
2023-04-04T10:30:23.221Z,0.73
2023-04-04T10:33:08.380Z,0.77
2023-04-04T10:35:45.574Z,0.80
2023-04-04T10:38:22.034Z,1.00
2023-04-04T10:40:56.068Z,0.87
2023-04-04T10:43:32.629Z,0.80
2023-04-04T10:46:12.150Z,1.13
2023-04-04T10:48:44.323Z,0.73
2023-04-04T10:51:15.923Z,1.07
2023-04-04T10:53:47.581Z,1.00
2023-04-04T10:56:19.318Z,1.07
2023-04-04T10:58:50.907Z,0.80
2023-04-04T11:01:49.086Z,0.73
2023-04-04T11:04:28.450Z,0.70
2023-04-04T11:07:19.086Z,0.70
2023-04-04T11:10:01.146Z,1.30
2023-04-04T11:12:38.318Z,0.90
2023-04-04T11:15:10.780Z,1.00
2023-04-04T11:17:58.516Z,0.60
2023-04-04T11:20:34.800Z,1.50
2023-04-04T11:25:49.771Z,0.90
2023-04-04T11:28:27.429Z,0.90
2023-04-04T11:31:17.555Z,1.00
2023-04-04T11:34:00.331Z,0.93
2023-04-04T11:36:41.349Z,0.80
2023-04-04T11:39:24.583Z,1.00
2023-04-04T11:42:05.150Z,0.80
2023-04-04T11:45:02.198Z,0.90
2023-04-04T11:47:33.757Z,0.98
2023-04-04T11:50:09.634Z,0.87
2023-04-04T11:52:42.798Z,1.10
2023-04-04T11:55:18.987Z,0.80
2023-04-04T12:00:39.113Z,0.80
2023-04-04T12:03:12.338Z,0.77
2023-04-04T12:05:44.804Z,0.93
2023-04-04T12:08:17.893Z,0.70
2023-04-04T12:10:51.494Z,0.60
2023-04-04T12:13:31.120Z,0.80
2023-04-04T12:16:02.580Z,0.60
2023-04-04T12:18:34.047Z,0.77
2023-04-04T12:21:07.256Z,0.83
2023-04-04T12:23:38.591Z,0.70
2023-04-04T12:26:11.330Z,0.80
2023-04-04T12:28:45.288Z,0.70
2023-04-04T12:31:17.148Z,0.60
2023-04-04T12:33:48.528Z,0.70
2023-04-04T12:36:21.288Z,0.67
2023-04-04T12:38:58.437Z,0.73
2023-04-04T12:41:30.406Z,0.77
2023-04-04T12:44:09.650Z,0.80
2023-04-04T12:46:42.097Z,0.60
2023-04-04T12:49:13.986Z,0.60
2023-04-04T12:51:45.890Z,0.70
2023-04-04T12:54:28.939Z,1.00
2023-04-04T12:57:04.370Z,0.60
2023-04-04T12:59:36.895Z,0.80
2023-04-04T13:02:12.432Z,0.97
2023-04-04T13:04:57.692Z,0.80
2023-04-04T13:07:32.834Z,0.80
2023-04-04T13:10:05.552Z,0.83
2023-04-04T13:13:02.415Z,0.90
2023-04-04T13:15:51.068Z,0.80
2023-04-04T13:18:24.832Z,0.93
2023-04-04T13:20:56.459Z,1.13
2023-04-04T13:23:27.796Z,0.90
2023-04-04T13:25:59.513Z,0.90
2023-04-04T13:28:31.242Z,1.00
2023-04-04T13:31:07.454Z,0.97
2023-04-04T13:36:10.646Z,0.80
2023-04-04T13:38:42.043Z,1.00
2023-04-04T13:41:13.381Z,0.97
2023-04-04T13:43:44.707Z,0.80
2023-04-04T13:46:16.129Z,1.07
2023-04-04T13:48:47.806Z,0.73
2023-04-04T13:51:19.463Z,0.70
2023-04-04T13:53:50.787Z,0.83
2023-04-04T13:56:23.000Z,1.27
2023-04-04T13:58:54.856Z,0.90
2023-04-04T14:01:26.470Z,0.90
2023-04-04T14:03:57.962Z,1.00
2023-04-04T14:06:29.341Z,1.13
2023-04-04T14:09:00.940Z,0.87
2023-04-04T14:11:34.096Z,1.03
2023-04-04T14:14:05.436Z,0.90
2023-04-04T14:16:36.785Z,0.80
2023-04-04T14:19:08.161Z,0.70
2023-04-04T14:21:39.588Z,1.20
2023-04-04T14:24:11.171Z,1.00
2023-04-04T14:26:42.551Z,0.80
2023-04-04T14:29:13.957Z,0.90
2023-04-04T14:31:45.520Z,1.00
2023-04-04T14:34:16.844Z,1.10
2023-04-04T14:36:48.725Z,0.80
2023-04-04T14:39:20.406Z,1.00
2023-04-04T14:41:51.778Z,1.10
2023-04-04T14:44:23.146Z,0.67
2023-04-04T14:46:54.589Z,0.70
2023-04-04T14:49:26.310Z,0.80
2023-04-04T14:51:57.625Z,0.80
2023-04-04T14:54:29.051Z,0.97
2023-04-04T14:57:02.192Z,0.87
2023-04-04T14:59:33.753Z,0.83
2023-04-04T15:02:06.060Z,0.73
2023-04-04T15:04:37.655Z,0.90
2023-04-04T15:07:09.365Z,1.03
2023-04-04T15:09:41.655Z,0.93
2023-04-04T15:12:12.991Z,0.57
2023-04-04T15:14:44.301Z,1.27
2023-04-04T15:17:15.593Z,0.60
2023-04-04T15:19:46.984Z,0.80
2023-04-04T15:22:19.768Z,0.97
2023-04-04T15:24:51.715Z,1.00
2023-04-04T15:27:23.394Z,0.90
2023-04-04T15:29:54.870Z,1.07
2023-04-04T15:32:26.332Z,1.37
2023-04-04T15:35:00.316Z,1.00
2023-04-04T15:37:33.121Z,0.80
2023-04-04T15:40:04.816Z,0.90
2023-04-04T15:42:36.171Z,1.20
2023-04-04T15:45:08.326Z,0.83
2023-04-04T15:47:40.223Z,1.27
2023-04-04T15:50:12.086Z,0.80
2023-04-04T15:52:43.429Z,0.90
2023-04-04T15:55:16.971Z,1.00
2023-04-04T15:57:48.590Z,0.70
2023-04-04T16:00:20.149Z,1.10
2023-04-04T16:02:51.840Z,0.87
2023-04-04T16:05:23.227Z,0.97
2023-04-04T16:07:54.518Z,1.07
2023-04-04T16:10:26.078Z,0.57
2023-04-04T16:12:57.420Z,1.13
2023-04-04T16:15:28.915Z,1.13
2023-04-04T16:18:01.045Z,1.17
2023-04-04T16:20:32.463Z,1.20
2023-04-04T16:23:03.877Z,0.90
2023-04-04T16:25:35.668Z,1.20
2023-04-04T16:28:07.078Z,0.93
2023-04-04T16:30:38.560Z,0.90
2023-04-04T16:33:10.235Z,1.23
2023-04-04T16:35:41.564Z,0.90
2023-04-04T16:38:12.930Z,0.87
2023-04-04T16:40:44.332Z,0.90
2023-04-04T16:43:15.803Z,0.90
2023-04-04T16:45:48.222Z,1.20
2023-04-04T16:48:19.944Z,1.17
2023-04-04T16:50:51.430Z,1.17
2023-04-04T16:53:22.753Z,1.00
2023-04-04T16:55:54.229Z,1.10
2023-04-04T16:58:26.205Z,0.83
2023-04-04T17:00:57.758Z,0.97
2023-04-04T17:03:29.211Z,1.10
2023-04-04T17:06:01.597Z,1.20
2023-04-04T17:08:32.920Z,1.70
2023-04-04T17:11:04.383Z,1.23
2023-04-04T17:13:35.758Z,1.10
2023-04-04T17:16:08.252Z,1.40
2023-04-04T17:18:39.752Z,1.27
2023-04-04T17:21:11.127Z,1.60
2023-04-04T17:23:42.463Z,1.20
2023-04-04T17:26:13.756Z,1.37
2023-04-04T17:28:45.614Z,1.57
2023-04-04T17:31:17.511Z,1.60
2023-04-04T17:33:48.903Z,1.30
2023-04-04T17:36:20.636Z,1.50
2023-04-04T17:38:51.960Z,1.80
2023-04-04T17:41:24.728Z,1.50
2023-04-04T17:43:56.063Z,1.50
2023-04-04T17:46:28.914Z,1.60
2023-04-04T17:49:01.145Z,1.47
2023-04-04T17:51:33.077Z,1.80
2023-04-04T17:54:05.769Z,2.00
2023-04-04T17:56:37.228Z,2.87
2023-04-04T17:59:08.674Z,4.17
2023-04-04T18:01:40.641Z,4.03
2023-04-04T18:04:12.037Z,6.40
2023-04-04T18:06:43.773Z,3.63
2023-04-04T18:09:15.180Z,2.70
2023-04-04T18:11:46.765Z,3.00
2023-04-04T18:14:18.117Z,2.93
2023-04-04T18:16:49.585Z,3.87
2023-04-04T18:19:21.095Z,4.00
2023-04-04T18:21:54.447Z,2.33
2023-04-04T18:24:29.576Z,3.10
2023-04-04T18:27:01.127Z,2.97
2023-04-04T18:29:32.591Z,3.03
2023-04-04T18:32:04.374Z,2.37
2023-04-04T18:34:37.036Z,2.17
2023-04-04T18:37:08.684Z,2.20
2023-04-04T18:39:40.277Z,2.37
2023-04-04T18:42:11.716Z,2.53
2023-04-04T18:44:43.292Z,2.50
2023-04-04T18:47:14.634Z,2.30
2023-04-04T18:49:46.037Z,3.23
2023-04-04T18:52:17.327Z,2.57
2023-04-04T18:54:48.759Z,3.60
2023-04-04T18:57:20.300Z,3.20
2023-04-04T18:59:51.845Z,2.90
2023-04-04T19:02:23.204Z,3.33
2023-04-04T19:04:55.406Z,3.03
2023-04-04T19:07:27.819Z,3.90
2023-04-04T19:10:04.639Z,3.57
2023-04-04T19:12:36.204Z,2.40
2023-04-04T19:15:07.920Z,2.87
2023-04-04T19:17:39.960Z,2.70
2023-04-04T19:20:12.418Z,2.93
2023-04-04T19:22:43.772Z,2.30
2023-04-04T19:25:15.419Z,2.13
2023-04-04T19:27:47.080Z,2.10
2023-04-04T19:30:54.483Z,2.13
2023-04-04T19:33:27.510Z,2.05
2023-04-04T19:36:12.074Z,2.00
2023-04-04T19:38:48.320Z,1.77
2023-04-04T19:41:22.202Z,1.15
2023-04-04T19:43:53.589Z,1.80
2023-04-04T19:46:28.714Z,2.43
2023-04-04T19:49:10.261Z,2.93
2023-04-04T19:51:49.926Z,2.20
2023-04-04T19:54:29.125Z,1.90
2023-04-04T19:57:03.635Z,2.00
2023-04-04T19:59:54.614Z,1.73
2023-04-04T20:02:36.415Z,2.20
2023-04-04T20:05:32.182Z,1.87
2023-04-04T20:08:06.422Z,2.20
2023-04-04T20:10:41.631Z,1.97
2023-04-04T20:13:14.040Z,1.77
2023-04-04T20:15:45.929Z,1.73
2023-04-04T20:18:25.282Z,1.90
2023-04-04T20:20:59.152Z,2.80
2023-04-04T20:23:32.772Z,2.60
2023-04-04T20:26:08.547Z,2.23
2023-04-04T20:28:43.678Z,2.08
2023-04-04T20:31:17.839Z,2.60
2023-04-04T20:33:50.210Z,2.80
2023-04-04T20:36:21.842Z,2.97
2023-04-04T20:38:53.335Z,2.50
2023-04-04T20:41:25.396Z,2.63
2023-04-04T20:43:58.687Z,3.00
2023-04-04T20:46:35.772Z,3.00
2023-04-04T20:49:07.223Z,2.70
2023-04-04T20:51:41.870Z,3.07
2023-04-04T20:54:13.665Z,3.00
2023-04-04T20:56:47.553Z,3.43
2023-04-04T20:59:36.682Z,2.90
2023-04-04T21:02:11.598Z,3.53
2023-04-04T21:04:45.655Z,2.80
2023-04-04T21:07:37.182Z,3.40
2023-04-04T21:10:26.786Z,2.90
2023-04-04T21:13:00.888Z,3.17
2023-04-04T21:15:38.513Z,3.07
2023-04-04T21:18:11.873Z,2.90
2023-04-04T21:20:46.334Z,2.57
2023-04-04T21:23:26.554Z,3.27
2023-04-04T21:26:00.949Z,2.47
2023-04-04T21:28:33.279Z,2.43
2023-04-04T21:31:14.066Z,3.03
2023-04-04T21:33:47.408Z,2.60
2023-04-04T21:36:24.569Z,2.90
2023-04-04T21:38:57.236Z,3.10
2023-04-04T21:41:36.348Z,2.80
2023-04-04T21:44:09.059Z,2.30
2023-04-04T21:46:41.550Z,2.23
2023-04-04T21:49:13.144Z,2.73
2023-04-04T21:51:44.670Z,2.40
2023-04-04T21:54:20.387Z,2.43
2023-04-04T21:56:51.887Z,2.40
2023-04-04T21:59:23.428Z,2.23
2023-04-04T22:01:54.908Z,2.13
2023-04-04T22:04:26.389Z,2.30
2023-04-04T22:06:58.603Z,2.50
2023-04-04T22:09:30.213Z,2.43
2023-04-04T22:12:03.005Z,2.30
2023-04-04T22:14:34.435Z,2.67
2023-04-04T22:17:06.124Z,2.73
2023-04-04T22:19:43.748Z,2.00
2023-04-04T22:22:15.375Z,2.97
2023-04-04T22:24:50.890Z,2.33
2023-04-04T22:27:22.296Z,2.90
2023-04-04T22:29:53.677Z,2.27
2023-04-04T22:32:25.281Z,2.50
2023-04-04T22:34:57.608Z,2.23
2023-04-04T22:37:29.244Z,2.37
2023-04-04T22:40:01.772Z,2.67
2023-04-04T22:42:33.120Z,2.30
2023-04-04T22:45:04.911Z,2.40
2023-04-04T22:47:36.243Z,3.00
2023-04-04T22:50:08.474Z,2.50
2023-04-04T22:52:43.278Z,2.23
2023-04-04T22:55:17.604Z,2.30
2023-04-04T22:57:49.294Z,2.20
2023-04-04T23:00:21.046Z,2.50
2023-04-04T23:02:52.444Z,2.73
2023-04-04T23:05:24.145Z,2.23
2023-04-04T23:07:55.645Z,2.87
2023-04-04T23:10:27.448Z,3.03
2023-04-04T23:13:00.105Z,2.70
2023-04-04T23:15:35.496Z,2.57
2023-04-04T23:18:08.363Z,2.92
2023-04-04T23:20:40.961Z,2.70
2023-04-04T23:23:12.486Z,2.80
2023-04-04T23:25:44.700Z,3.00
2023-04-04T23:28:16.677Z,3.30
2023-04-04T23:30:48.296Z,3.03
2023-04-04T23:33:19.600Z,3.93
2023-04-04T23:35:51.050Z,3.13
2023-04-04T23:38:23.519Z,3.10
2023-04-04T23:40:54.943Z,3.83
2023-04-04T23:43:26.536Z,2.77
2023-04-04T23:46:00.474Z,3.07
2023-04-04T23:48:32.432Z,2.90
2023-04-04T23:51:04.270Z,3.10
2023-04-04T23:53:35.783Z,2.87
2023-04-04T23:56:07.407Z,2.60
2023-04-04T23:58:39.169Z,3.17
